< < Back
Terminal Aerodrome Forecast


Current Version              Previous Versions:   1  2  3  4  5  6  7  8  9  

Terminal Aerodrome Forecast

592
FTUS44 KMRX 241720
TAFCHA
TAF
KCHA 241720Z 2418/2518 17008KT P6SM BKN250
     FM250100 16004KT P6SM SCT050 BKN150
     FM250600 18006KT 5SM -SHRA BR SCT025 OVC035
     FM250800 20006KT 4SM TSRA BR SCT020 BKN030CB
     FM251300 21009KT 5SM -SHRA BR BKN025=

Latest METAR

900
SAUS80 KWBC 250600 RRC
MTRCHA
METAR KCHA 250553Z AUTO 16004KT 10SM BKN055 BKN070 OVC100 19/11 A2983
RMK AO2 SLP096 T01940111 10250 20189 58008 $


USA.gov is the U.S. government's official web portal to all federal, state and local government web resources and services.